Have a Safe July 4th! 

Flight Track Log - Related Links

Times and Time Zones

All times are in EDT time to prevent confusion due to time zone crossing. See the TAM3763 flight status page for this flight to view local times or setup timezone preferences in your user account.

Time Position Orientation Groundspeed Altitude Reporting Facility
EDT Latitude Longitude Course Direction KTS MPH feet Rate Location/Type
Sat 05:56:26 AM -23.6359 -46.6501 147° Southeast 149 171 2,800  Level FlightAware ADS-B
Sat 05:56:42 AM -23.6451 -46.6438 147° Southeast 160 184 3,300 1,800 Climbing FlightAware ADS-B
Sat 05:56:56 AM -23.6549 -46.6373 148° Southeast 173 199 3,700 1,655 Climbing FlightAware ADS-B
Sat 05:57:11 AM -23.6659 -46.6298 147° Southeast 191 220 4,100 1,600 Climbing FlightAware ADS-B
Sat 05:57:26 AM -23.6774 -46.6219 147° Southeast 210 242 4,500 1,920 Climbing FlightAware ADS-B
Sat 05:57:36 AM -23.6863 -46.6160 151° Southeast 219 252 4,900 2,400 Climbing FlightAware ADS-B
Sat 05:57:41 AM -23.6901 -46.6144 160° South 221 254 5,100 3,000 Climbing FlightAware ADS-B
Sat 05:57:46 AM -23.6956 -46.6133 174° South 225 259 5,400 2,727 Climbing FlightAware ADS-B
Sat 05:57:52 AM -23.7014 -46.6134 186° South 228 262 5,600 2,727 Climbing FlightAware ADS-B
Sat 05:57:57 AM -23.7066 -46.6148 197° South 232 267 5,900 3,600 Climbing FlightAware ADS-B
Sat 05:58:02 AM -23.7117 -46.6174 209° Southwest 232 267 6,200 4,000 Climbing FlightAware ADS-B
Sat 05:58:06 AM -23.7159 -46.6208 220° Southwest 230 265 6,500 3,333 Climbing FlightAware ADS-B
Sat 05:58:11 AM -23.7192 -46.6246 231° Southwest 230 265 6,700 2,727 Climbing FlightAware ADS-B
Sat 05:58:17 AM -23.7222 -46.6298 239° Southwest 230 265 7,000 2,727 Climbing FlightAware ADS-B
Sat 05:58:22 AM -23.7244 -46.6355 251° West 236 272 7,200 2,400 Climbing FlightAware ADS-B
Sat 05:58:27 AM -23.7255 -46.6414 261° West 242 278 7,400 2,667 Climbing FlightAware ADS-B
Sat 05:58:31 AM -23.7259 -46.6472 268° West 247 284 7,600 2,100 Climbing FlightAware ADS-B
Sat 05:58:47 AM -23.7256 -46.6669 271° West 265 305 8,100 1,920 Climbing FlightAware ADS-B
Sat 05:58:56 AM -23.7262 -46.6805 265° West 275 316 8,400 2,500 Climbing FlightAware ADS-B
Sat 05:59:11 AM -23.7303 -46.7009 253° West 283 326 9,100 3,120 Climbing FlightAware ADS-B
Sat 05:59:21 AM -23.7352 -46.7144 247° West 283 326 9,700 3,360 Climbing FlightAware ADS-B
Sat 05:59:36 AM -23.7442 -46.7332 241° Southwest 285 328 10,500 2,267 Climbing FlightAware ADS-B
Sat 06:00:06 AM -23.7669 -46.7719 237° Southwest 318 366 11,400 2,100 Climbing FlightAware ADS-B
Sat 06:00:36 AM -23.7928 -46.8131 236° Southwest 334 384 12,600 2,520 Climbing FlightAware ADS-B
Sat 06:00:56 AM -23.8059 -46.8433 254° West 338 389 13,500 2,710 Climbing FlightAware ADS-B
Sat 06:01:07 AM -23.8074 -46.8608 270° West 341 392 14,000 3,000 Climbing FlightAware ADS-B
Sat 06:01:16 AM -23.8051 -46.8781 284° West 342 394 14,500 3,158 Climbing FlightAware ADS-B
Sat 06:01:26 AM -23.8003 -46.8920 296° West 343 395 15,000 2,462 Climbing FlightAware ADS-B
Sat 06:01:55 AM -23.7833 -46.9211 304° West 351 404 16,100 2,516 Climbing FlightAware ADS-B
Sat 06:02:28 AM -23.7446 -46.9856 304° West 359 413 17,600 3,143 Climbing FlightAware ADS-B (SDAM)
Sat 06:02:58 AM -23.7176 -47.0302 304° West 347 399 19,400 3,458 Climbing FlightAware ADS-B (SDAM)
Sat 06:03:27 AM -23.6917 -47.0729 304° West 339 390 21,000 3,051 Climbing FlightAware ADS-B (SDAM)
Sat 06:03:57 AM -23.6656 -47.1157 304° West 336 387 22,400 2,000 Climbing FlightAware ADS-B (SDAM)
Sat 06:04:27 AM -23.6391 -47.1593 304° West 354 407 23,000 1,000 Climbing FlightAware ADS-B (SDAM)
Sat 06:04:57 AM -23.6113 -47.2055 304° West 375 432 23,400 1,082 Climbing FlightAware ADS-B (SDAM)
Sat 06:05:28 AM -23.5818 -47.2541 304° West 375 432 24,100 1,600 Climbing FlightAware ADS-B (SDAM)
Sat 06:05:57 AM -23.5520 -47.3029 304° West 393 452 25,000 1,729 Climbing FlightAware ADS-B (SDAM)
Sat 06:06:27 AM -23.5218 -47.3530 304° West 396 456 25,800 1,610 Climbing FlightAware ADS-B (SDAM)
Sat 06:06:38 AM -23.5137 -47.3709 293° West 394 453 26,100 2,000 Climbing FlightAware ADS-B (SDAM)
Sat 06:06:57 AM -23.5058 -47.4085 276° West 391 450 26,800 1,714 Climbing FlightAware ADS-B (SDAM)
Sat 06:07:27 AM -23.5045 -47.4688 272° West 397 457 27,500 1,600 Climbing FlightAware ADS-B (SDAM)
Sat 06:07:57 AM -23.5028 -47.5284 272° West 397 457 28,400 2,200 Climbing FlightAware ADS-B (SDAM)
Sat 06:08:27 AM -23.5012 -47.5876 272° West 384 442 29,700 2,600 Climbing FlightAware ADS-B (SDAM)
Sat 06:08:57 AM -23.4997 -47.6447 272° West 373 429 31,000 1,062 Climbing FlightAware ADS-B (SDAM)
Sat 06:10:37 AM -23.4932 -47.8273 273° West 370 426 32,000 458 Climbing FlightAware ADS-B (SDAM)
Sat 06:11:08 AM -23.4911 -47.8842 273° West 372 428 32,000  Level FlightAware ADS-B (SDAM)
Sat 06:11:38 AM -23.4890 -47.9416 273° West 375 432 32,000  Level FlightAware ADS-B (SDAM)
Sat 06:12:07 AM -23.4869 -47.9982 273° West 376 433 32,000  Level FlightAware ADS-B (SDAM)
Sat 06:12:37 AM -23.4847 -48.0546 273° West 376 433 32,000  Level FlightAware ADS-B (SDAM)
Sat 06:13:08 AM -23.4825 -48.1117 273° West 376 433 32,000  Level FlightAware ADS-B (SDAM)
Sat 06:13:37 AM -23.4803 -48.1679 273° West 376 433 32,000  Level FlightAware ADS-B (SDAM)
Sat 06:14:08 AM -23.4781 -48.2252 273° West 375 432 32,000  Level FlightAware ADS-B (SDAM)
Sat 06:14:37 AM -23.4759 -48.2814 273° West 376 433 32,000  Level FlightAware ADS-B (SDAM)
Sat 06:15:07 AM -23.4737 -48.3347 273° West 376 433 32,000  Level FlightAware ADS-B (SDAM)
Sat 06:15:37 AM -23.4715 -48.3940 273° West 376 433 32,000  Level FlightAware ADS-B (SDAM)
Sat 06:16:07 AM -23.4692 -48.4503 273° West 376 433 32,000  Level FlightAware ADS-B (SDAM)
Sat 06:16:37 AM -23.4668 -48.5079 273° West 376 433 32,000  Level FlightAware ADS-B (SDAM)
Sat 06:17:08 AM -23.4645 -48.5643 273° West 375 432 32,000  Level FlightAware ADS-B (SDAM)
Sat 06:17:38 AM -23.4622 -48.6212 273° West 375 432 32,000  Level FlightAware ADS-B (SDAM)
Sat 06:18:08 AM -23.4599 -48.6775 273° West 374 430 32,000  Level FlightAware ADS-B (SDAM)
Sat 06:18:37 AM -23.4575 -48.7330 273° West 374 430 32,000  Level FlightAware ADS-B (SDAM)
Sat 06:19:07 AM -23.4551 -48.7904 273° West 374 430 32,000  Level FlightAware ADS-B (SDAM)
Sat 06:19:37 AM -23.4526 -48.8467 273° West 374 430 32,000  Level FlightAware ADS-B (SDAM)
Sat 06:20:07 AM -23.4503 -48.9031 273° West 374 430 32,000  Level FlightAware ADS-B (SDAM)
Sat 06:20:37 AM -23.4478 -48.9597 273° West 374 430 32,000  Level FlightAware ADS-B (SDAM)
Sat 06:21:07 AM -23.4454 -49.0150 273° West 373 429 32,000  Level FlightAware ADS-B (SDAM)
Sat 06:21:37 AM -23.4427 -49.0724 273° West 374 430 32,000  Level FlightAware ADS-B (SDAM)
Sat 06:22:07 AM -23.4402 -49.1288 273° West 374 430 32,000  Level FlightAware ADS-B (SDAM)
Sat 06:22:37 AM -23.4378 -49.1849 273° West 374 430 32,000  Level FlightAware ADS-B (SDAM)
Sat 06:23:07 AM -23.4353 -49.2417 273° West 374 430 32,000  Level FlightAware ADS-B (SDAM)
Sat 06:23:37 AM -23.4328 -49.2960 273° West 374 430 32,000  Level FlightAware ADS-B (SDAM)
Sat 06:24:08 AM -23.4301 -49.3539 273° West 374 430 32,000  Level FlightAware ADS-B (SDAM)
Sat 06:24:37 AM -23.4274 -49.4108 273° West 374 430 32,000  Level FlightAware ADS-B (SDAM)
Sat 06:25:07 AM -23.4248 -49.4663 273° West 373 429 32,000  Level FlightAware ADS-B (SDAM)
Sat 06:25:37 AM -23.4221 -49.5229 273° West 373 429 32,000  Level FlightAware ADS-B (SDAM)
Sat 06:26:07 AM -23.4191 -49.5798 276° West 373 429 32,000  Level FlightAware ADS-B (SDAM)
Sat 06:26:47 AM -23.4090 -49.6524 279° West 374 430 32,000  Level FlightAware ADS-B (SDAM)
Sat 06:27:18 AM -23.4013 -49.7081 279° West 374 430 32,000  Level FlightAware ADS-B (SDAM)
Sat 06:27:47 AM -23.3936 -49.7646 279° West 374 430 32,000  Level FlightAware ADS-B (SDAM)
Sat 06:28:17 AM -23.3859 -49.8206 279° West 374 430 32,000 -300 Level FlightAware ADS-B (SDAM)
Sat 06:28:47 AM -23.3790 -49.8710 279° West 366 421 31,700 -1,200 Descending FlightAware ADS-B (SDAM)
Sat 06:29:17 AM -23.3710 -49.9295 279° West 352 405 30,800 -1,345 Descending FlightAware ADS-B (SDAM)
Sat 06:29:45 AM -23.3684 -49.9484 279° West 353 406 30,400 -857 Descending FlightAware ADS-B (SDAM)
Sat 06:32:00 AM -23.3637 -50.1255 272° West  Level Estimated
Sat 06:33:00 AM -23.3616 -50.2042 272° West  Level Estimated
Sat 06:34:00 AM -23.3594 -50.2829 272° West  Level Estimated
Sat 06:35:00 AM -23.3572 -50.3616 272° West  Level Estimated
Sat 06:36:00 AM -23.3550 -50.4403 272° West  Level Estimated
Sat 06:37:00 AM -23.3527 -50.5190 272° West  Level Estimated
Sat 06:38:00 AM -23.3504 -50.5977 272° West  Level Estimated
Sat 06:39:00 AM -23.3480 -50.6764 272° West  Level Estimated
Sat 06:40:00 AM -23.3456 -50.7551 272° West  Level Estimated
Sat 06:41:00 AM -23.3432 -50.8338 272° West  Level Estimated
Sat 06:42:00 AM -23.3407 -50.9125 272° West  Level Estimated
Sat 06:43:00 AM -23.3382 -50.9912 272° West  Level Estimated
Sat 06:44:00 AM -23.3356 -51.0698 272° West  Level Estimated
Sat 06:45:00 AM -23.3336 -51.1301 272° West  Level Estimated
Sat 06:46:00 AM -23.3336 -51.1301 North  Level Estimated
Sat 06:47:00 AM -23.3336 -51.1301 North  Level Estimated
Sat 06:48:00 AM -23.3336 -51.1301 North  Level Estimated
Sat 06:49:00 AM -23.3336 -51.1301 North  Level Estimated
Sat 06:50:00 AM -23.3336 -51.1301 North  Level Estimated
Sat 06:51:00 AM -23.3336 -51.1301 North  Level Estimated
Sat 06:52:00 AM -23.3336 -51.1301 North  Level Estimated
Sat 06:53:00 AM -23.3336 -51.1301 North  Level Estimated
Sat 06:54:00 AM -23.3336 -51.1301 North  Level Estimated
Sat 06:55:00 AM -23.3336 -51.1301 North  Level Estimated
Sat 06:56:00 AM -23.3336 -51.1301 North  Level Estimated
Sat 06:57:00 AM -23.3336 -51.1301 North  Level Estimated
Sat 06:58:00 AM -23.3336 -51.1301 North  Level Estimated
Sat 06:59:00 AM -23.3336 -51.1301 North  Level Estimated
Sat 07:00:00 AM -23.3336 -51.1301 North  Level Estimated
Sat 07:01:00 AM -23.3336 -51.1301 North  Level Estimated
Sat 07:02:00 AM -23.3336 -51.1301 North  Level Estimated
Sat 07:03:00 AM -23.3336 -51.1301 North  Level Estimated
Sat 07:04:00 AM -23.3336 -51.1301 North  Level Estimated
Sat 07:05:00 AM -23.3336 -51.1301 North  Level Estimated
Sat 07:06:00 AM -23.3336 -51.1301 North  Level Estimated
Sat 07:07:00 AM -23.3336 -51.1301 North  Level Estimated
Sat 07:08:00 AM -23.3336 -51.1301 North  Level Estimated
Sat 07:09:00 AM -23.3336 -51.1301 North  Level Estimated

Login

Don't have an account? Register now (free) for customized features, flight alerts, and more!